Brookside, Kentucky
Current Conditions -  °F | °C
As of 1:35 AM on Wednesday 26 Nov 2014 (Local Time) from KI35 Reporting Station
Scattered Clouds Scattered Clouds  
Wind Chill: 36°   Ceiling: Unl
Heat Index: 41°   Visibility: 10mi
Dew Point: 28°   Wind: 7mph
Humidity: 61%   Direction: 10°N
Pressure: 30.03"   Gusts: NA
Location:  36.8576°N, 83.2467°W
Report Text: KI35 260635Z AUTO 01006KT 10SM SCT120 05/M02 A3003 RMK AO1
Loading
Personal Weather Stations






























Interactive Weather Map New forecast layout! Learn more

10-Day Weather Forecast

Advertisements
Track Severe Weather on mobile